createdAt,value
2022-10-08T00:00:27.575Z,8.87
2022-10-08T00:01:27.602Z,9.00
2022-10-08T00:02:27.587Z,9.10
2022-10-08T00:03:27.555Z,9.15
2022-10-08T00:04:27.568Z,9.18
2022-10-08T00:05:27.539Z,9.16
2022-10-08T00:06:27.526Z,9.16
2022-10-08T00:07:27.550Z,9.19
2022-10-08T00:08:27.516Z,9.19
2022-10-08T00:09:27.533Z,9.25
2022-10-08T00:10:27.498Z,9.26
2022-10-08T00:11:27.491Z,9.22
2022-10-08T00:12:27.507Z,9.18
2022-10-08T00:13:27.473Z,9.11
2022-10-08T00:14:27.464Z,9.03
2022-10-08T00:15:27.448Z,9.02
2022-10-08T00:16:28.490Z,8.95
2022-10-08T00:17:27.479Z,8.85
2022-10-08T00:18:27.429Z,8.95
2022-10-08T00:19:27.417Z,8.90
2022-10-08T00:20:27.424Z,8.90
2022-10-08T00:21:27.411Z,8.93
2022-10-08T00:22:27.422Z,9.03
2022-10-08T00:23:27.390Z,8.99
2022-10-08T00:24:27.381Z,8.95
2022-10-08T00:25:27.377Z,8.93
2022-10-08T00:26:27.375Z,8.85
2022-10-08T00:27:27.412Z,8.87
2022-10-08T00:28:27.376Z,8.81
2022-10-08T00:29:27.375Z,8.80
2022-10-08T00:30:27.354Z,8.72
2022-10-08T00:31:27.410Z,8.66
2022-10-08T00:32:27.430Z,8.63
2022-10-08T00:33:27.321Z,8.55
2022-10-08T00:34:27.308Z,8.49
2022-10-08T00:35:27.303Z,8.44
2022-10-08T00:36:27.299Z,8.42
2022-10-08T00:37:27.325Z,8.49
2022-10-08T00:38:27.278Z,8.41
2022-10-08T00:39:27.269Z,8.39
2022-10-08T00:40:27.275Z,8.38
2022-10-08T00:41:27.250Z,8.30
2022-10-08T00:42:27.274Z,8.41
2022-10-08T00:43:27.235Z,8.39
2022-10-08T00:44:27.225Z,8.33
2022-10-08T00:45:27.234Z,8.29
2022-10-08T00:46:27.201Z,8.30
2022-10-08T00:47:27.251Z,8.33
2022-10-08T00:48:27.190Z,8.33
2022-10-08T00:49:27.185Z,8.26
2022-10-08T00:50:27.179Z,8.21
2022-10-08T00:51:27.165Z,8.26
2022-10-08T00:52:27.182Z,8.30
2022-10-08T00:53:27.145Z,8.42
2022-10-08T00:54:27.133Z,8.36
2022-10-08T00:55:27.130Z,8.33
2022-10-08T00:56:27.121Z,8.33
2022-10-08T00:57:27.145Z,8.33
2022-10-08T00:58:27.098Z,8.30
2022-10-08T00:59:27.116Z,8.30
2022-10-08T01:00:27.083Z,8.18
2022-10-08T01:01:27.138Z,8.20
2022-10-08T01:02:27.147Z,8.26
2022-10-08T01:03:27.068Z,8.23
2022-10-08T01:04:27.056Z,8.24
2022-10-08T01:05:27.045Z,8.13
2022-10-08T01:06:27.046Z,8.20
2022-10-08T01:07:27.060Z,8.12
2022-10-08T01:08:27.025Z,8.11
2022-10-08T01:09:27.035Z,8.06
2022-10-08T01:10:27.021Z,8.13
2022-10-08T01:11:26.995Z,8.16
2022-10-08T01:12:27.045Z,8.04
2022-10-08T01:13:26.984Z,7.90
2022-10-08T01:14:26.970Z,7.98
2022-10-08T01:15:26.965Z,8.05
2022-10-08T01:16:26.985Z,8.05
2022-10-08T01:17:26.993Z,8.15
2022-10-08T01:18:26.942Z,8.18
2022-10-08T01:19:26.957Z,8.23
2022-10-08T01:20:26.940Z,8.18
2022-10-08T01:21:26.909Z,8.08
2022-10-08T01:22:27.945Z,8.11
2022-10-08T01:23:26.903Z,8.09
2022-10-08T01:24:26.891Z,8.11
2022-10-08T01:25:26.882Z,8.09
2022-10-08T01:26:26.884Z,8.05
2022-10-08T01:27:26.910Z,8.04
2022-10-08T01:28:26.885Z,8.06
2022-10-08T01:29:26.878Z,8.01
2022-10-08T01:30:26.869Z,8.02
2022-10-08T01:31:26.886Z,7.88
2022-10-08T01:32:26.848Z,8.02
2022-10-08T01:33:26.870Z,7.97
2022-10-08T01:34:26.817Z,7.98
2022-10-08T01:35:26.805Z,8.05
2022-10-08T01:36:26.805Z,8.09
2022-10-08T01:37:26.791Z,8.23
2022-10-08T01:39:00.660Z,8.11
2022-10-08T01:39:26.773Z,8.18
2022-10-08T01:40:26.770Z,8.27
2022-10-08T01:41:26.765Z,8.36
2022-10-08T01:42:26.749Z,8.34
2022-10-08T01:44:00.721Z,8.44
2022-10-08T01:44:26.731Z,8.45
2022-10-08T01:45:26.762Z,8.47
2022-10-08T01:46:26.715Z,8.48
2022-10-08T01:47:26.768Z,8.45
2022-10-08T01:48:26.747Z,8.44
2022-10-08T01:49:26.708Z,8.45
2022-10-08T01:50:26.696Z,8.41
2022-10-08T01:51:26.674Z,8.34
2022-10-08T01:52:26.668Z,8.36
2022-10-08T01:53:26.692Z,8.36
2022-10-08T01:54:26.660Z,8.29
2022-10-08T01:55:26.635Z,8.27
2022-10-08T01:56:26.633Z,8.36
2022-10-08T01:57:26.631Z,8.29
2022-10-08T01:58:26.648Z,8.38
2022-10-08T01:59:26.605Z,8.31
2022-10-08T02:00:26.611Z,8.30
2022-10-08T02:01:26.611Z,8.36
2022-10-08T02:02:26.669Z,8.29
2022-10-08T02:03:26.615Z,8.24
2022-10-08T02:04:26.642Z,8.26
2022-10-08T02:05:26.559Z,8.39
2022-10-08T02:06:26.558Z,8.30
2022-10-08T02:07:26.541Z,8.24
2022-10-08T02:08:26.581Z,8.29
2022-10-08T02:09:26.523Z,8.31
2022-10-08T02:10:27.522Z,8.23
2022-10-08T02:11:26.518Z,8.20
2022-10-08T02:12:26.507Z,8.16
2022-10-08T02:13:26.526Z,8.16
2022-10-08T02:14:26.539Z,8.18
2022-10-08T02:15:26.482Z,8.11
2022-10-08T02:16:26.552Z,8.18
2022-10-08T02:17:26.461Z,8.11
2022-10-08T02:18:26.485Z,8.11
2022-10-08T02:19:26.446Z,8.11
2022-10-08T02:20:26.442Z,8.12
2022-10-08T02:21:26.437Z,8.21
2022-10-08T02:22:26.428Z,8.13
2022-10-08T02:23:26.442Z,8.18
2022-10-08T02:24:26.406Z,8.08
2022-10-08T02:25:26.403Z,8.08
2022-10-08T02:26:26.388Z,8.11
2022-10-08T02:27:26.382Z,8.02
2022-10-08T02:28:26.459Z,8.02
2022-10-08T02:29:26.362Z,7.98
2022-10-08T02:30:26.353Z,7.96
2022-10-08T02:31:26.419Z,8.01
2022-10-08T02:32:26.390Z,7.94
2022-10-08T02:33:26.396Z,7.94
2022-10-08T02:34:26.321Z,7.87
2022-10-08T02:35:26.313Z,7.83
2022-10-08T02:37:00.151Z,7.69
2022-10-08T02:37:26.294Z,7.73
2022-10-08T02:38:26.316Z,7.73
2022-10-08T02:39:26.315Z,7.84
2022-10-08T02:40:26.296Z,7.80
2022-10-08T02:41:26.263Z,7.86
2022-10-08T02:42:26.236Z,7.75
2022-10-08T02:43:27.281Z,7.88
2022-10-08T02:44:26.283Z,7.78
2022-10-08T02:45:26.236Z,7.76
2022-10-08T02:46:26.233Z,7.93
2022-10-08T02:47:26.217Z,7.87
2022-10-08T02:48:26.330Z,7.97
2022-10-08T02:49:26.272Z,8.15
2022-10-08T02:50:26.193Z,8.09
2022-10-08T02:51:26.180Z,8.09
2022-10-08T02:52:26.176Z,8.02
2022-10-08T02:53:26.414Z,8.15
2022-10-08T02:54:26.161Z,8.11
2022-10-08T02:55:26.153Z,8.16
2022-10-08T02:56:26.140Z,8.16
2022-10-08T02:57:26.168Z,8.12
2022-10-08T02:58:26.174Z,8.08
2022-10-08T02:59:26.121Z,8.16
2022-10-08T03:00:26.129Z,8.15
2022-10-08T03:01:26.153Z,8.06
2022-10-08T03:02:26.178Z,8.08
2022-10-08T03:03:26.112Z,8.02
2022-10-08T03:04:26.070Z,7.91
2022-10-08T03:05:26.079Z,8.02
2022-10-08T03:06:26.055Z,7.98
2022-10-08T03:07:26.050Z,7.94
2022-10-08T03:08:26.050Z,7.94
2022-10-08T03:09:26.058Z,7.93
2022-10-08T03:10:26.038Z,7.87
2022-10-08T03:11:26.014Z,7.84
2022-10-08T03:12:26.011Z,7.75
2022-10-08T03:13:25.992Z,7.76
2022-10-08T03:14:26.016Z,7.66
2022-10-08T03:15:25.978Z,7.62
2022-10-08T03:16:26.042Z,7.66
2022-10-08T03:17:25.967Z,7.57
2022-10-08T03:18:25.956Z,7.64
2022-10-08T03:19:25.969Z,7.56
2022-10-08T03:20:26.947Z,7.46
2022-10-08T03:21:25.933Z,7.42
2022-10-08T03:22:25.927Z,7.42
2022-10-08T03:23:25.918Z,7.41
2022-10-08T03:24:25.963Z,7.29
2022-10-08T03:25:25.899Z,7.29
2022-10-08T03:26:25.906Z,7.16
2022-10-08T03:27:25.887Z,7.25
2022-10-08T03:29:05.792Z,7.18
2022-10-08T03:29:25.866Z,7.14
2022-10-08T03:30:25.940Z,7.14
2022-10-08T03:31:25.848Z,7.18
2022-10-08T03:32:25.852Z,7.17
2022-10-08T03:33:25.836Z,7.31
2022-10-08T03:34:25.872Z,7.10
2022-10-08T03:35:25.819Z,7.28
2022-10-08T03:36:25.818Z,7.18
2022-10-08T03:37:25.804Z,7.21
2022-10-08T03:38:25.790Z,7.35
2022-10-08T03:39:25.813Z,7.36
2022-10-08T03:40:25.777Z,7.31
2022-10-08T03:41:25.768Z,7.38
2022-10-08T03:42:25.766Z,7.42
2022-10-08T03:43:25.755Z,7.41
2022-10-08T03:44:25.803Z,7.42
2022-10-08T03:45:25.773Z,7.41
2022-10-08T03:46:25.767Z,7.47
2022-10-08T03:47:25.726Z,7.54
2022-10-08T03:48:25.722Z,7.53
2022-10-08T03:49:25.738Z,7.66
2022-10-08T03:50:25.699Z,7.49
2022-10-08T03:51:25.693Z,7.60
2022-10-08T03:52:25.686Z,7.50
2022-10-08T03:53:25.674Z,7.54
2022-10-08T03:54:25.697Z,7.57
2022-10-08T03:55:25.658Z,7.60
2022-10-08T03:56:25.649Z,7.60
2022-10-08T03:57:25.649Z,7.54
2022-10-08T03:58:25.639Z,7.54
2022-10-08T03:59:25.667Z,7.50
2022-10-08T04:00:25.617Z,7.60
2022-10-08T04:01:25.651Z,7.66
2022-10-08T04:02:25.625Z,7.59
2022-10-08T04:03:25.598Z,7.54
2022-10-08T04:04:25.995Z,7.62
2022-10-08T04:05:26.586Z,7.54
2022-10-08T04:06:25.565Z,7.60
2022-10-08T04:07:25.560Z,7.54
2022-10-08T04:08:25.557Z,7.52
2022-10-08T04:09:25.585Z,7.49
2022-10-08T04:10:25.531Z,7.60
2022-10-08T04:11:25.526Z,7.54
2022-10-08T04:12:25.514Z,7.53
2022-10-08T04:13:25.525Z,7.54
2022-10-08T04:14:25.538Z,7.57
2022-10-08T04:15:25.655Z,7.70
2022-10-08T04:16:25.494Z,7.57
2022-10-08T04:17:25.484Z,7.69
2022-10-08T04:18:25.484Z,7.62
2022-10-08T04:19:25.487Z,7.53
2022-10-08T04:20:25.453Z,7.62
2022-10-08T04:21:25.447Z,7.50
2022-10-08T04:22:25.437Z,7.56
2022-10-08T04:23:25.434Z,7.44
2022-10-08T04:24:25.452Z,7.54
2022-10-08T04:25:25.423Z,7.41
2022-10-08T04:26:25.408Z,7.47
2022-10-08T04:27:25.393Z,7.47
2022-10-08T04:28:25.437Z,7.41
2022-10-08T04:29:25.411Z,7.42
2022-10-08T04:30:25.365Z,7.41
2022-10-08T04:31:25.398Z,7.38
2022-10-08T04:32:25.351Z,7.36
2022-10-08T04:33:25.350Z,7.44
2022-10-08T04:34:25.367Z,7.46
2022-10-08T04:35:25.340Z,7.54
2022-10-08T04:36:25.327Z,7.57
2022-10-08T04:37:25.306Z,7.52
2022-10-08T04:38:25.308Z,7.52
2022-10-08T04:39:25.334Z,7.39
2022-10-08T04:40:25.291Z,7.31
2022-10-08T04:41:25.278Z,7.34
2022-10-08T04:42:25.264Z,7.31
2022-10-08T04:43:25.271Z,7.39
2022-10-08T04:44:25.285Z,7.32
2022-10-08T04:45:25.243Z,7.28
2022-10-08T04:46:25.298Z,7.31
2022-10-08T04:47:25.231Z,7.34
2022-10-08T04:48:25.218Z,7.32
2022-10-08T04:49:25.217Z,7.36
2022-10-08T04:50:25.239Z,7.32
2022-10-08T04:51:25.198Z,7.29
2022-10-08T04:52:25.193Z,7.32
2022-10-08T04:53:25.177Z,7.32
2022-10-08T04:54:25.174Z,7.32
2022-10-08T04:55:25.190Z,7.28
2022-10-08T04:56:25.160Z,7.26
2022-10-08T04:57:25.150Z,7.32
2022-10-08T04:58:25.140Z,7.28
2022-10-08T04:59:25.134Z,7.23
2022-10-08T05:00:25.155Z,7.26
2022-10-08T05:01:25.254Z,7.41
2022-10-08T05:02:25.140Z,7.42
2022-10-08T05:03:25.102Z,7.46
2022-10-08T05:04:25.096Z,7.53
2022-10-08T05:05:25.122Z,7.56
2022-10-08T05:06:25.084Z,7.53
2022-10-08T05:07:25.075Z,7.59
2022-10-08T05:08:25.071Z,7.46
2022-10-08T05:09:25.057Z,7.49
2022-10-08T05:10:25.071Z,7.47
2022-10-08T05:11:25.101Z,7.60
2022-10-08T05:12:25.029Z,7.53
2022-10-08T05:13:25.020Z,7.57
2022-10-08T05:14:25.013Z,7.60
2022-10-08T05:15:25.032Z,7.54
2022-10-08T05:16:25.052Z,7.57
2022-10-08T05:17:25.002Z,7.53
2022-10-08T05:18:24.981Z,7.52
2022-10-08T05:19:24.975Z,7.53
2022-10-08T05:20:24.995Z,7.44
2022-10-08T05:21:24.954Z,7.46
2022-10-08T05:22:24.950Z,7.44
2022-10-08T05:23:24.930Z,7.44
2022-10-08T05:24:24.925Z,7.46
2022-10-08T05:25:24.949Z,7.44
2022-10-08T05:26:41.408Z,7.52
2022-10-08T05:27:26.906Z,7.49
2022-10-08T05:28:24.941Z,7.38
2022-10-08T05:29:24.886Z,7.44
2022-10-08T05:30:24.924Z,7.42
2022-10-08T05:31:24.928Z,7.49
2022-10-08T05:32:25.861Z,7.42
2022-10-08T05:33:24.855Z,7.41
2022-10-08T05:34:24.852Z,7.50
2022-10-08T05:35:24.870Z,7.36
2022-10-08T05:36:24.828Z,7.44
2022-10-08T05:37:24.825Z,7.41
2022-10-08T05:38:24.818Z,7.44
2022-10-08T05:39:24.804Z,7.39
2022-10-08T05:40:24.834Z,7.41
2022-10-08T05:41:24.803Z,7.50
2022-10-08T05:42:24.785Z,7.35
2022-10-08T05:43:24.776Z,7.35
2022-10-08T05:44:24.769Z,7.35
2022-10-08T05:45:24.797Z,7.34
2022-10-08T05:46:24.810Z,7.34
2022-10-08T05:47:24.743Z,7.29
2022-10-08T05:48:24.733Z,7.38
2022-10-08T05:49:24.723Z,7.31
2022-10-08T05:50:24.760Z,7.32
2022-10-08T05:51:24.716Z,7.32
2022-10-08T05:52:24.703Z,7.34
2022-10-08T05:53:24.693Z,7.21
2022-10-08T05:54:24.681Z,7.16
2022-10-08T05:55:24.713Z,7.21
2022-10-08T05:56:24.679Z,7.20
2022-10-08T05:57:24.657Z,7.14
2022-10-08T05:58:28.465Z,7.25
2022-10-08T05:59:26.646Z,7.17
2022-10-08T06:00:24.630Z,7.20
2022-10-08T06:01:24.652Z,7.18
2022-10-08T06:02:24.674Z,7.20
2022-10-08T06:03:24.613Z,7.13
2022-10-08T06:04:24.661Z,7.14
2022-10-08T06:05:24.589Z,7.11
2022-10-08T06:06:24.606Z,7.10
2022-10-08T06:07:25.583Z,7.02
2022-10-08T06:08:24.569Z,7.10
2022-10-08T06:09:24.562Z,7.03
2022-10-08T06:10:24.564Z,7.00
2022-10-08T06:11:24.673Z,7.05
2022-10-08T06:12:24.538Z,7.10
2022-10-08T06:13:24.527Z,7.11
2022-10-08T06:14:24.521Z,7.08
2022-10-08T06:15:24.515Z,7.20
2022-10-08T06:16:24.586Z,7.17
2022-10-08T06:17:24.502Z,7.26
2022-10-08T06:18:24.482Z,7.21
2022-10-08T06:19:24.495Z,7.23
2022-10-08T06:20:27.413Z,7.31
2022-10-08T06:21:25.498Z,7.21
2022-10-08T06:22:24.467Z,7.35
2022-10-08T06:23:24.455Z,7.39
2022-10-08T06:24:24.441Z,7.53
2022-10-08T06:25:24.436Z,7.44
2022-10-08T06:26:24.461Z,7.52
2022-10-08T06:27:24.426Z,7.54
2022-10-08T06:28:24.451Z,7.53
2022-10-08T06:29:24.410Z,7.47
2022-10-08T06:30:24.403Z,7.49
2022-10-08T06:31:24.494Z,7.52
2022-10-08T06:32:24.383Z,7.47
2022-10-08T06:33:24.372Z,7.53
2022-10-08T06:34:24.356Z,7.49
2022-10-08T06:35:25.350Z,7.60
2022-10-08T06:36:24.370Z,7.50
2022-10-08T06:37:24.335Z,7.57
2022-10-08T06:38:24.333Z,7.54
2022-10-08T06:39:24.321Z,7.69
2022-10-08T06:40:24.310Z,7.66
2022-10-08T06:41:24.332Z,7.72
2022-10-08T06:42:24.399Z,7.79
2022-10-08T06:43:24.292Z,7.86
2022-10-08T06:44:24.280Z,7.86
2022-10-08T06:45:24.264Z,7.91
2022-10-08T06:46:24.355Z,7.96
2022-10-08T06:47:24.250Z,7.94
2022-10-08T06:48:24.240Z,7.96
2022-10-08T06:49:24.237Z,7.98
2022-10-08T06:50:24.226Z,8.04
2022-10-08T06:51:24.263Z,8.16
2022-10-08T06:52:24.213Z,8.16
2022-10-08T06:53:24.203Z,8.42
2022-10-08T06:54:24.193Z,8.64
2022-10-08T06:55:24.188Z,8.75
2022-10-08T06:56:24.214Z,8.84
2022-10-08T06:57:24.179Z,8.93
2022-10-08T06:58:51.698Z,8.85
2022-10-08T06:59:24.160Z,8.96
2022-10-08T07:00:24.152Z,9.00
2022-10-08T07:01:26.777Z,9.15
2022-10-08T07:02:24.233Z,9.15
2022-10-08T07:03:24.126Z,9.21
2022-10-08T07:04:24.123Z,9.16
2022-10-08T07:05:24.110Z,9.22
2022-10-08T07:06:24.097Z,9.21
2022-10-08T07:07:24.122Z,9.26
2022-10-08T07:08:24.087Z,9.11
2022-10-08T07:09:24.071Z,9.21
2022-10-08T07:10:24.092Z,9.33
2022-10-08T07:11:24.058Z,9.40
2022-10-08T07:12:24.051Z,9.39
2022-10-08T07:13:24.044Z,9.52
2022-10-08T07:14:24.029Z,9.65
2022-10-08T07:15:24.066Z,9.65
2022-10-08T07:16:24.045Z,9.82
2022-10-08T07:17:24.008Z,9.88
2022-10-08T07:18:24.005Z,10.19
2022-10-08T07:19:23.990Z,10.16
2022-10-08T07:20:24.017Z,10.89
2022-10-08T07:21:23.976Z,10.95
2022-10-08T07:22:49.194Z,10.85
2022-10-08T07:23:24.155Z,10.90
2022-10-08T07:24:23.968Z,11.04
2022-10-08T07:25:23.977Z,10.92
2022-10-08T07:26:23.941Z,10.95
2022-10-08T07:27:23.930Z,10.95
2022-10-08T07:28:23.941Z,10.83
2022-10-08T07:29:23.918Z,10.95
2022-10-08T07:30:23.924Z,10.90
2022-10-08T07:31:23.922Z,10.87
2022-10-08T07:32:23.881Z,11.04
2022-10-08T07:33:23.876Z,10.97
2022-10-08T07:34:23.862Z,11.07
2022-10-08T07:35:23.895Z,11.07
2022-10-08T07:36:23.855Z,11.19
2022-10-08T07:37:23.842Z,11.33
2022-10-08T07:38:23.836Z,11.56
2022-10-08T07:39:23.828Z,11.63
2022-10-08T07:40:23.868Z,11.72
2022-10-08T07:41:23.812Z,11.83
2022-10-08T07:42:23.800Z,11.95
2022-10-08T07:43:23.796Z,11.96
2022-10-08T07:44:23.785Z,11.90
2022-10-08T07:45:23.821Z,11.91
2022-10-08T07:46:23.790Z,11.77
2022-10-08T07:47:23.761Z,11.91
2022-10-08T07:48:23.759Z,11.86
2022-10-08T07:49:23.743Z,12.06
2022-10-08T07:50:23.727Z,12.55
2022-10-08T07:51:23.760Z,12.82
2022-10-08T07:52:23.718Z,12.75
2022-10-08T07:53:23.708Z,12.63
2022-10-08T07:54:23.704Z,12.65
2022-10-08T07:55:23.689Z,12.53
2022-10-08T07:56:23.711Z,12.50
2022-10-08T07:57:23.693Z,12.33
2022-10-08T07:58:23.677Z,12.47
2022-10-08T07:59:23.665Z,12.43
2022-10-08T08:00:26.119Z,12.42
2022-10-08T08:01:24.728Z,12.45
2022-10-08T08:02:23.808Z,12.36
2022-10-08T08:03:23.623Z,12.55
2022-10-08T08:04:23.621Z,12.68
2022-10-08T08:05:23.609Z,12.87
2022-10-08T08:06:23.635Z,12.91
2022-10-08T08:07:23.596Z,13.01
2022-10-08T08:08:23.584Z,12.98
2022-10-08T08:09:24.579Z,12.98
2022-10-08T08:10:23.573Z,12.96
2022-10-08T08:11:23.606Z,12.93
2022-10-08T08:12:23.561Z,12.76
2022-10-08T08:13:23.549Z,12.78
2022-10-08T08:14:23.544Z,12.88
2022-10-08T08:15:23.531Z,12.91
2022-10-08T08:16:23.638Z,13.11
2022-10-08T08:17:23.507Z,13.21
2022-10-08T08:18:23.501Z,13.31
2022-10-08T08:19:23.502Z,13.38
2022-10-08T08:20:24.380Z,13.33
2022-10-08T08:21:23.501Z,13.30
2022-10-08T08:22:24.473Z,13.41
2022-10-08T08:23:23.470Z,13.39
2022-10-08T08:24:23.466Z,13.37
2022-10-08T08:25:23.453Z,13.37
2022-10-08T08:26:23.483Z,13.49
2022-10-08T08:27:23.439Z,13.63
2022-10-08T08:28:23.472Z,13.70
2022-10-08T08:29:23.432Z,13.70
2022-10-08T08:30:23.426Z,13.88
2022-10-08T08:31:23.485Z,13.92
2022-10-08T08:32:28.235Z,14.28
2022-10-08T08:33:25.370Z,14.43
2022-10-08T08:34:23.386Z,14.58
2022-10-08T08:35:23.367Z,14.96
2022-10-08T08:36:23.394Z,14.88
2022-10-08T08:37:23.355Z,14.99
2022-10-08T08:38:23.339Z,15.04
2022-10-08T08:39:23.337Z,15.07
2022-10-08T08:40:23.434Z,14.69
2022-10-08T08:41:23.307Z,14.77
2022-10-08T08:42:23.333Z,14.81
2022-10-08T08:43:23.292Z,14.55
2022-10-08T08:44:23.280Z,14.36
2022-10-08T08:45:45.495Z,14.30
2022-10-08T08:46:25.338Z,14.22
2022-10-08T08:47:23.286Z,14.05
2022-10-08T08:48:23.248Z,13.83
2022-10-08T08:49:23.243Z,13.75
2022-10-08T08:50:23.280Z,13.75
2022-10-08T08:51:23.241Z,13.60
2022-10-08T08:52:23.245Z,13.55
2022-10-08T08:53:23.207Z,13.60
2022-10-08T08:54:23.205Z,13.53
2022-10-08T08:55:23.198Z,13.59
2022-10-08T08:56:23.197Z,13.63
2022-10-08T08:57:23.219Z,13.74
2022-10-08T08:58:23.180Z,13.77
2022-10-08T08:59:23.163Z,13.82
2022-10-08T09:00:23.187Z,13.75
2022-10-08T09:01:23.191Z,13.77
2022-10-08T09:02:23.172Z,13.67
2022-10-08T09:03:23.132Z,13.64
2022-10-08T09:04:23.121Z,13.67
2022-10-08T09:05:23.149Z,13.60
2022-10-08T09:06:23.103Z,13.63
2022-10-08T09:07:23.125Z,13.74
2022-10-08T09:08:23.086Z,13.71
2022-10-08T09:09:23.136Z,13.82
2022-10-08T09:10:23.127Z,13.75
2022-10-08T09:11:23.057Z,13.74
2022-10-08T09:12:23.085Z,13.70
2022-10-08T09:13:23.048Z,13.67
2022-10-08T09:14:23.038Z,13.56
2022-10-08T09:15:23.025Z,13.55
2022-10-08T09:16:23.073Z,13.52
2022-10-08T09:17:23.054Z,13.60
2022-10-08T09:18:23.003Z,13.65
2022-10-08T09:19:22.994Z,13.68
2022-10-08T09:20:23.017Z,13.68
2022-10-08T09:21:22.971Z,13.71
2022-10-08T09:22:22.998Z,13.55
2022-10-08T09:23:22.969Z,13.60
2022-10-08T09:24:22.955Z,13.56
2022-10-08T09:25:22.988Z,13.77
2022-10-08T09:26:22.937Z,13.88
2022-10-08T09:27:22.959Z,13.96
2022-10-08T09:28:22.965Z,13.88
2022-10-08T09:29:22.911Z,13.90
2022-10-08T09:30:23.050Z,14.04
2022-10-08T09:31:22.982Z,14.00
2022-10-08T09:32:22.923Z,13.92
2022-10-08T09:33:22.896Z,13.95
2022-10-08T09:34:22.873Z,13.96
2022-10-08T09:35:22.864Z,13.95
2022-10-08T09:36:22.866Z,13.83
2022-10-08T09:37:22.881Z,13.74
2022-10-08T09:38:22.842Z,13.77
2022-10-08T09:39:22.833Z,13.88
2022-10-08T09:40:22.828Z,13.95
2022-10-08T09:41:22.818Z,14.03
2022-10-08T09:42:22.844Z,14.00
2022-10-08T09:43:22.800Z,14.08
2022-10-08T09:44:22.791Z,14.13
2022-10-08T09:45:22.782Z,14.04
2022-10-08T09:46:22.803Z,14.20
2022-10-08T09:47:22.792Z,14.23
2022-10-08T09:48:22.763Z,14.20
2022-10-08T09:49:22.756Z,14.15
2022-10-08T09:50:22.751Z,14.29
2022-10-08T09:51:22.732Z,14.26
2022-10-08T09:52:22.751Z,14.20
2022-10-08T09:53:22.720Z,14.14
2022-10-08T09:54:22.705Z,14.08
2022-10-08T09:55:22.701Z,14.18
2022-10-08T09:56:22.693Z,14.19
2022-10-08T09:57:22.715Z,14.08
2022-10-08T09:58:22.682Z,14.14
2022-10-08T09:59:22.670Z,14.19
2022-10-08T10:00:22.683Z,14.32
2022-10-08T10:01:22.746Z,14.32
2022-10-08T10:02:22.677Z,14.23
2022-10-08T10:03:22.651Z,14.26
2022-10-08T10:04:22.623Z,14.38
2022-10-08T10:05:22.614Z,14.37
2022-10-08T10:06:22.616Z,14.43
2022-10-08T10:07:22.643Z,14.40
2022-10-08T10:08:22.600Z,14.19
2022-10-08T10:09:22.588Z,14.25
2022-10-08T10:10:22.574Z,14.22
2022-10-08T10:11:22.573Z,14.18
2022-10-08T10:12:22.587Z,14.14
2022-10-08T10:13:22.547Z,14.08
2022-10-08T10:14:22.539Z,13.97
2022-10-08T10:15:22.537Z,14.18
2022-10-08T10:16:22.564Z,14.18
2022-10-08T10:17:22.511Z,14.15
2022-10-08T10:18:22.560Z,14.18
2022-10-08T10:19:22.502Z,14.18
2022-10-08T10:20:22.513Z,14.08
2022-10-08T10:21:22.492Z,13.96
2022-10-08T10:22:22.493Z,14.03
2022-10-08T10:23:22.491Z,13.96
2022-10-08T10:24:22.453Z,14.08
2022-10-08T10:25:22.483Z,14.03
2022-10-08T10:26:22.449Z,14.08
2022-10-08T10:27:22.437Z,14.14
2022-10-08T10:28:22.582Z,14.19
2022-10-08T10:29:24.697Z,14.08
2022-10-08T10:30:22.399Z,14.19
2022-10-08T10:31:22.419Z,14.05
2022-10-08T10:32:23.784Z,14.23
2022-10-08T10:33:22.407Z,14.11
2022-10-08T10:34:22.365Z,14.14
2022-10-08T10:35:22.365Z,14.25
2022-10-08T10:36:22.357Z,14.20
2022-10-08T10:37:22.349Z,14.23
2022-10-08T10:38:22.365Z,14.18
2022-10-08T10:39:22.330Z,14.30
2022-10-08T10:40:22.328Z,14.37
2022-10-08T10:41:22.314Z,14.38
2022-10-08T10:42:22.299Z,14.41
2022-10-08T10:43:22.333Z,14.48
2022-10-08T10:44:22.290Z,14.44
2022-10-08T10:45:22.282Z,14.47
2022-10-08T10:46:22.319Z,14.68
2022-10-08T10:47:22.264Z,14.66
2022-10-08T10:48:22.286Z,14.74
2022-10-08T10:49:22.242Z,14.95
2022-10-08T10:50:22.244Z,14.99
2022-10-08T10:51:22.243Z,15.11
2022-10-08T10:52:22.220Z,15.24
2022-10-08T10:53:22.249Z,15.36
2022-10-08T10:54:22.231Z,15.32
2022-10-08T10:55:22.199Z,15.28
2022-10-08T10:56:22.191Z,15.17
2022-10-08T10:57:22.174Z,15.22
2022-10-08T10:58:22.197Z,15.02
2022-10-08T10:59:22.168Z,15.17
2022-10-08T11:00:22.159Z,15.19
2022-10-08T11:01:22.397Z,15.27
2022-10-08T11:02:22.222Z,15.27
2022-10-08T11:03:22.172Z,15.19
2022-10-08T11:04:22.154Z,15.03
2022-10-08T11:05:22.124Z,15.07
2022-10-08T11:06:22.108Z,15.04
2022-10-08T11:07:22.098Z,15.30
2022-10-08T11:08:22.121Z,15.25
2022-10-08T11:09:22.084Z,15.39
2022-10-08T11:10:22.072Z,15.28
2022-10-08T11:11:22.069Z,15.17
2022-10-08T11:12:22.061Z,15.24
2022-10-08T11:13:22.081Z,15.43
2022-10-08T11:14:22.037Z,15.40
2022-10-08T11:15:22.038Z,15.39
2022-10-08T11:16:22.125Z,15.46
2022-10-08T11:17:22.379Z,15.54
2022-10-08T11:18:23.041Z,15.69
2022-10-08T11:19:22.005Z,15.70
2022-10-08T11:20:21.994Z,15.48
2022-10-08T11:21:21.986Z,15.37
2022-10-08T11:22:21.981Z,15.36
2022-10-08T11:23:21.999Z,15.32
2022-10-08T11:24:21.969Z,15.28
2022-10-08T11:25:21.966Z,15.22
2022-10-08T11:26:23.323Z,15.40
2022-10-08T11:27:22.933Z,15.15
2022-10-08T11:28:22.013Z,15.15
2022-10-08T11:29:21.912Z,15.12
2022-10-08T11:30:21.909Z,15.15
2022-10-08T11:31:21.974Z,15.21
2022-10-08T11:32:21.898Z,15.30
2022-10-08T11:33:21.913Z,15.35
2022-10-08T11:34:21.868Z,15.28
2022-10-08T11:35:21.868Z,15.35
2022-10-08T11:36:22.753Z,15.25
2022-10-08T11:37:21.845Z,15.17
2022-10-08T11:38:21.876Z,15.18
2022-10-08T11:39:21.834Z,15.11
2022-10-08T11:40:21.831Z,15.12
2022-10-08T11:41:21.816Z,15.12
2022-10-08T11:42:21.808Z,15.11
2022-10-08T11:43:21.828Z,15.02
2022-10-08T11:44:21.794Z,14.95
2022-10-08T11:45:21.792Z,15.02
2022-10-08T11:46:21.845Z,15.00
2022-10-08T11:47:21.766Z,15.00
2022-10-08T11:48:21.795Z,15.17
2022-10-08T11:49:21.752Z,15.42
2022-10-08T11:50:21.743Z,15.42
2022-10-08T11:51:21.735Z,15.61
2022-10-08T11:52:21.741Z,15.75
2022-10-08T11:53:21.749Z,16.06
2022-10-08T11:54:21.715Z,16.62
2022-10-08T11:55:21.710Z,16.82
2022-10-08T11:56:21.709Z,16.93
2022-10-08T11:57:21.696Z,16.71
2022-10-08T11:58:21.714Z,16.89
2022-10-08T11:59:21.675Z,16.99
2022-10-08T12:00:21.671Z,17.09
2022-10-08T12:01:21.662Z,17.22
2022-10-08T12:02:21.733Z,17.53
2022-10-08T12:03:21.763Z,17.94
2022-10-08T12:04:21.658Z,18.13
2022-10-08T12:05:21.628Z,18.44
2022-10-08T12:06:21.625Z,19.29
2022-10-08T12:07:21.614Z,19.26
2022-10-08T12:08:21.622Z,19.59
2022-10-08T12:09:22.597Z,18.70
2022-10-08T12:10:21.600Z,19.19
2022-10-08T12:11:21.581Z,20.11
2022-10-08T12:12:21.576Z,20.31
2022-10-08T12:13:21.604Z,19.66
2022-10-08T12:14:21.556Z,19.54
2022-10-08T12:15:21.552Z,19.29
2022-10-08T12:16:21.638Z,19.22
2022-10-08T12:17:21.541Z,20.15
2022-10-08T12:18:25.843Z,21.21
2022-10-08T12:19:22.512Z,21.95
2022-10-08T12:20:21.504Z,21.52
2022-10-08T12:21:21.497Z,20.31
2022-10-08T12:22:21.492Z,20.84
2022-10-08T12:23:21.479Z,21.29
2022-10-08T12:24:21.508Z,21.50
2022-10-08T12:25:21.477Z,21.90
2022-10-08T12:26:21.452Z,21.59
2022-10-08T12:27:21.448Z,20.87
2022-10-08T12:28:21.512Z,21.11
2022-10-08T12:29:21.470Z,21.54
2022-10-08T12:30:21.432Z,21.59
2022-10-08T12:31:21.475Z,21.40
2022-10-08T12:32:21.402Z,21.00
2022-10-08T12:33:21.393Z,20.15
2022-10-08T12:34:21.425Z,19.64
2022-10-08T12:35:21.384Z,20.33
2022-10-08T12:36:21.662Z,19.85
2022-10-08T12:37:21.367Z,19.16
2022-10-08T12:38:21.358Z,18.52
2022-10-08T12:39:21.385Z,19.31
2022-10-08T12:40:21.345Z,19.56
2022-10-08T12:41:21.342Z,20.03
2022-10-08T12:42:21.329Z,19.92
2022-10-08T12:43:21.324Z,19.36
2022-10-08T12:44:21.338Z,19.00
2022-10-08T12:45:21.310Z,20.00
2022-10-08T12:46:21.389Z,19.71
2022-10-08T12:47:21.293Z,20.34
2022-10-08T12:48:21.284Z,20.66
2022-10-08T12:49:21.315Z,21.35
2022-10-08T12:50:21.278Z,21.08
2022-10-08T12:51:21.267Z,21.32
2022-10-08T12:52:21.285Z,21.37
2022-10-08T12:53:21.244Z,21.37
2022-10-08T12:54:21.262Z,22.03
2022-10-08T12:55:21.242Z,22.19
2022-10-08T12:56:21.224Z,22.36
2022-10-08T12:57:21.230Z,22.35
2022-10-08T12:58:21.225Z,22.58
2022-10-08T12:59:21.237Z,22.15
2022-10-08T13:00:21.194Z,21.99
2022-10-08T13:01:21.291Z,21.98
2022-10-08T13:02:21.266Z,21.72
2022-10-08T13:03:21.164Z,21.76
2022-10-08T13:04:21.182Z,21.82
2022-10-08T13:05:21.149Z,21.72
2022-10-08T13:06:21.141Z,21.95